Time;durP1;ratioP1;P1;durP2;ratioP2;P2;SDS_P1;SDS_P2;PMS_P1;PMS_P2;Temp;Humidity;BMP_temperature;BMP_pressure;BME280_temperature;BME280_humidity;BME280_pressure;Samples;Min_cycle;Max_cycle;Signal;HPM_P1;HPM_P2
2022/11/25 00:01:38;;;;;;;;;;;;;;;9.68;51.73;99567.78;4476706;32;32746;-65
2022/11/25 00:04:06;;;;;;;;;;;;;;;9.72;51.49;99556.72;4475910;32;33798;-64
2022/11/25 00:06:34;;;;;;;;;;;;;;;9.86;50.74;99563.75;4478758;32;35489;-65
2022/11/25 00:09:03;;;;;;;;;;;;;;;9.79;51.00;99555.31;4473608;32;34159;-65
2022/11/25 00:11:33;;;;;;;;;;;;;;;9.82;50.94;99556.03;4470406;32;32674;-65
2022/11/25 00:14:00;;;;;;;;;;;;;;;9.70;51.21;99549.81;4469113;32;35236;-67
2022/11/25 00:16:28;;;;;;;;;;;;;;;9.74;51.08;99548.59;4477987;32;34398;-65
2022/11/25 00:18:55;;;;;;;;;;;;;;;9.79;51.04;99554.44;4468810;31;34536;-67
2022/11/25 00:21:24;;;;;;;;;;;;;;;9.63;51.46;99557.44;4481475;32;33584;-67
2022/11/25 00:23:52;;;;;;;;;;;;;;;9.68;51.59;99557.94;4479960;32;35050;-66
2022/11/25 00:26:19;;;;;;;;;;;;;;;9.53;51.76;99562.59;4478614;32;34060;-66
2022/11/25 00:28:47;;;;;;;;;;;;;;;9.48;52.70;99562.06;4472415;32;34036;-66
2022/11/25 00:31:18;;;;;;;;;;;;;;;9.49;52.97;99574.47;4472647;32;33861;-66
2022/11/25 00:33:46;;;;;;;;;;;;;;;9.64;52.64;99579.66;4473991;32;34281;-66
2022/11/25 00:36:32;;;;;;;;;;;;;;;9.61;52.63;99578.06;4479376;32;34149;-66
2022/11/25 00:39:01;;;;;;;;;;;;;;;9.65;52.84;99578.69;4479199;32;33899;-67
2022/11/25 00:44:39;;;;;;;;;;;;;;;9.66;52.70;99586.59;4471228;32;33879;-66
2022/11/25 00:47:08;;;;;;;;;;;;;;;9.53;53.00;99581.31;4470206;32;35380;-65
2022/11/25 00:49:36;;;;;;;;;;;;;;;9.15;54.37;99583.19;4480770;32;32719;-65
2022/11/25 00:52:04;;;;;;;;;;;;;;;9.03;54.95;99590.28;4472820;32;31873;-65
2022/11/25 00:54:31;;;;;;;;;;;;;;;9.36;53.87;99589.66;4469070;32;34210;-65
2022/11/25 00:56:59;;;;;;;;;;;;;;;9.31;54.43;99589.16;4472298;32;33598;-66
2022/11/25 00:59:28;;;;;;;;;;;;;;;9.34;54.08;99583.56;4465372;32;34004;-64
2022/11/25 01:01:58;;;;;;;;;;;;;;;9.53;53.77;99593.78;4475040;32;34354;-65
2022/11/25 01:04:26;;;;;;;;;;;;;;;9.40;54.37;99591.16;4471772;32;33410;-68
2022/11/25 01:06:55;;;;;;;;;;;;;;;9.35;55.27;99595.13;4479195;32;34372;-68
2022/11/25 01:09:22;;;;;;;;;;;;;;;9.45;54.71;99606.88;4472016;32;35211;-66
2022/11/25 01:11:50;;;;;;;;;;;;;;;9.22;54.95;99605.84;4469800;31;34363;-67
2022/11/25 01:14:18;;;;;;;;;;;;;;;9.39;54.40;99608.16;4469803;32;34617;-66
2022/11/25 01:16:46;;;;;;;;;;;;;;;9.02;56.62;99612.56;4473088;32;34334;-68
2022/11/25 01:19:14;;;;;;;;;;;;;;;9.40;54.95;99612.53;4476510;31;32902;-66
2022/11/25 01:21:41;;;;;;;;;;;;;;;9.07;55.60;99616.62;4469354;32;33542;-64
2022/11/25 01:24:11;;;;;;;;;;;;;;;9.53;54.50;99610.69;4441964;32;912451;-66
2022/11/25 01:26:38;;;;;;;;;;;;;;;9.33;54.99;99608.59;4468827;32;35163;-68
2022/11/25 01:29:06;;;;;;;;;;;;;;;9.54;54.63;99609.72;4480774;32;33983;-65
2022/11/25 01:31:34;;;;;;;;;;;;;;;9.67;53.54;99614.19;4470301;32;32906;-67
2022/11/25 01:34:06;;;;;;;;;;;;;;;9.75;53.33;99609.09;4470967;32;34108;-65
2022/11/25 01:36:34;;;;;;;;;;;;;;;9.72;53.46;99609.31;4473915;32;34210;-64
2022/11/25 01:39:02;;;;;;;;;;;;;;;9.61;53.87;99611.94;4478084;32;34878;-66
2022/11/25 01:41:30;;;;;;;;;;;;;;;9.38;54.47;99610.94;4473608;32;34472;-66
2022/11/25 01:44:04;;;;;;;;;;;;;;;9.44;54.17;99619.37;4468434;32;33881;-66
2022/11/25 01:46:50;;;;;;;;;;;;;;;9.68;53.59;99619.41;4480695;32;33159;-66
2022/11/25 01:49:26;;;;;;;;;;;;;;;9.67;53.54;99617.69;4475658;32;35197;-66
2022/11/25 01:52:02;;;;;;;;;;;;;;;9.79;53.04;99616.81;4461965;32;33420;-66
2022/11/25 01:54:31;;;;;;;;;;;;;;;9.50;53.85;99613.59;4461417;32;33555;-66
2022/11/25 01:57:00;;;;;;;;;;;;;;;9.58;53.91;99618.38;4474031;32;34057;-67
2022/11/25 01:59:27;;;;;;;;;;;;;;;9.23;55.22;99615.56;4471574;32;34418;-65
2022/11/25 02:01:55;;;;;;;;;;;;;;;9.37;55.22;99612.75;4455222;32;34445;-65
2022/11/25 02:04:23;;;;;;;;;;;;;;;9.62;53.88;99606.47;4471145;32;34008;-65
2022/11/25 02:06:51;;;;;;;;;;;;;;;9.67;53.15;99604.34;4463580;32;34376;-66
2022/11/25 02:09:20;;;;;;;;;;;;;;;9.52;53.90;99608.12;4461273;32;35353;-68
2022/11/25 02:11:47;;;;;;;;;;;;;;;9.49;53.83;99603.84;4470956;32;34126;-67
2022/11/25 02:14:15;;;;;;;;;;;;;;;9.41;54.08;99608.06;4477870;32;35270;-66
2022/11/25 02:16:43;;;;;;;;;;;;;;;9.54;53.59;99607.03;4463328;32;35403;-67
2022/11/25 02:19:15;;;;;;;;;;;;;;;9.67;53.15;99614.19;4469669;32;34014;-66
2022/11/25 02:21:44;;;;;;;;;;;;;;;9.52;53.24;99616.97;4460379;32;33515;-66
2022/11/25 02:24:14;;;;;;;;;;;;;;;9.10;54.23;99619.09;4469558;32;35093;-65
2022/11/25 02:26:42;;;;;;;;;;;;;;;9.64;52.85;99619.75;4478389;32;35461;-66
2022/11/25 02:29:10;;;;;;;;;;;;;;;9.17;54.29;99619.50;4458147;32;35161;-65
2022/11/25 02:31:37;;;;;;;;;;;;;;;9.55;53.32;99624.78;4457187;32;34420;-65
2022/11/25 02:34:05;;;;;;;;;;;;;;;9.29;53.72;99623.97;4470373;31;32210;-66
2022/11/25 02:36:33;;;;;;;;;;;;;;;9.47;53.41;99624.50;4465689;32;34445;-65
2022/11/25 02:39:00;;;;;;;;;;;;;;;9.72;52.43;99620.87;4465624;32;34467;-66
2022/11/25 02:41:31;;;;;;;;;;;;;;;9.73;52.38;99619.94;4462170;32;34711;-66
2022/11/25 02:43:59;;;;;;;;;;;;;;;9.63;52.54;99624.25;4469894;32;34742;-66
2022/11/25 02:46:27;;;;;;;;;;;;;;;9.35;52.91;99616.50;4475362;32;34358;-66
2022/11/25 02:48:55;;;;;;;;;;;;;;;9.43;53.13;99619.47;4470449;32;35760;-66
2022/11/25 02:51:40;;;;;;;;;;;;;;;9.49;52.92;99611.00;4477396;32;34525;-66
2022/11/25 02:54:08;;;;;;;;;;;;;;;9.05;54.82;99626.59;4480801;32;35110;-65
2022/11/25 02:56:36;;;;;;;;;;;;;;;9.10;55.20;99634.25;4472118;32;33987;-67
2022/11/25 02:59:03;;;;;;;;;;;;;;;9.20;54.94;99629.13;4468239;32;34085;-67
2022/11/25 03:01:31;;;;;;;;;;;;;;;8.91;56.17;99621.34;4465460;32;33737;-66
2022/11/25 03:03:58;;;;;;;;;;;;;;;8.80;55.97;99624.78;4464731;32;35682;-66
2022/11/25 03:06:26;;;;;;;;;;;;;;;7.88;58.62;99627.41;4466959;32;34290;-66
2022/11/25 03:08:54;;;;;;;;;;;;;;;8.55;57.04;99633.59;4469503;32;34252;-66
2022/11/25 03:12:17;;;;;;;;;;;;;;;8.14;58.50;99629.22;4464814;32;33191;-65
2022/11/25 03:14:09;;;;;;;;;;;;;;;8.44;57.62;99625.47;4470218;32;34843;-67
2022/11/25 03:16:36;;;;;;;;;;;;;;;7.78;60.16;99627.16;4474806;32;34185;-65
2022/11/25 03:19:03;;;;;;;;;;;;;;;8.37;58.46;99632.16;4474446;32;32915;-64
2022/11/25 03:21:31;;;;;;;;;;;;;;;8.06;59.01;99636.03;4470723;32;33177;-65
2022/11/25 03:23:58;;;;;;;;;;;;;;;7.68;59.26;99636.72;4478513;32;34952;-65
2022/11/25 03:26:25;;;;;;;;;;;;;;;7.94;58.81;99641.19;4468557;32;34101;-64
2022/11/25 03:28:53;;;;;;;;;;;;;;;7.69;59.53;99633.94;4473683;32;34756;-63
2022/11/25 03:31:20;;;;;;;;;;;;;;;7.83;59.54;99634.84;4471352;32;33044;-65
2022/11/25 03:33:48;;;;;;;;;;;;;;;7.98;59.04;99644.50;4469021;32;33829;-64
2022/11/25 03:36:15;;;;;;;;;;;;;;;8.04;58.50;99644.09;4468541;32;33340;-65
2022/11/25 03:38:42;;;;;;;;;;;;;;;8.06;58.58;99652.88;4470233;32;35248;-65
2022/11/25 03:41:09;;;;;;;;;;;;;;;8.00;58.86;99657.75;4465822;32;31927;-65
2022/11/25 03:43:37;;;;;;;;;;;;;;;8.05;58.89;99659.13;4476727;32;34587;-67
2022/11/25 03:46:04;;;;;;;;;;;;;;;8.20;58.84;99653.75;4473333;32;34266;-67
2022/11/25 03:48:32;;;;;;;;;;;;;;;8.53;57.97;99658.66;4467380;32;34173;-65
2022/11/25 03:50:59;;;;;;;;;;;;;;;8.16;59.11;99661.12;4463735;32;33088;-65
2022/11/25 03:53:27;;;;;;;;;;;;;;;8.53;57.64;99653.34;4468417;32;35189;-65
2022/11/25 03:55:54;;;;;;;;;;;;;;;8.61;57.24;99664.34;4463075;32;32929;-65
2022/11/25 03:58:22;;;;;;;;;;;;;;;8.70;57.52;99662.84;4465161;32;32889;-64
2022/11/25 04:00:49;;;;;;;;;;;;;;;9.05;56.15;99669.31;4465569;32;34163;-65
2022/11/25 04:03:17;;;;;;;;;;;;;;;8.77;56.70;99674.84;4472405;32;33594;-65
2022/11/25 04:05:44;;;;;;;;;;;;;;;9.00;55.60;99665.25;4473561;32;34461;-65
2022/11/25 04:08:12;;;;;;;;;;;;;;;9.26;54.71;99676.75;4474585;32;33936;-67
2022/11/25 04:10:39;;;;;;;;;;;;;;;9.34;54.29;99679.72;4474468;32;33458;-66
2022/11/25 04:13:07;;;;;;;;;;;;;;;8.93;55.39;99688.00;4465185;32;33109;-66
2022/11/25 04:15:34;;;;;;;;;;;;;;;9.22;54.68;99684.16;4463683;32;35400;-65
2022/11/25 04:18:02;;;;;;;;;;;;;;;9.33;54.06;99680.72;4471201;32;34273;-65
2022/11/25 04:20:30;;;;;;;;;;;;;;;9.36;54.03;99685.84;4466660;32;33834;-64
2022/11/25 04:22:57;;;;;;;;;;;;;;;9.30;54.03;99688.94;4476734;32;35054;-66
2022/11/25 04:25:26;;;;;;;;;;;;;;;9.18;55.93;99689.78;4450988;32;32587;-64
2022/11/25 04:27:53;;;;;;;;;;;;;;;9.05;56.62;99696.00;4476947;32;33862;-65
2022/11/25 04:30:22;;;;;;;;;;;;;;;9.19;55.37;99696.84;4470614;32;32828;-65
2022/11/25 04:32:49;;;;;;;;;;;;;;;9.45;54.35;99701.22;4467785;32;33500;-65
2022/11/25 04:35:16;;;;;;;;;;;;;;;9.54;53.49;99700.56;4466338;32;34300;-65
2022/11/25 04:37:44;;;;;;;;;;;;;;;9.53;53.42;99708.69;4468878;32;34074;-65
2022/11/25 04:40:12;;;;;;;;;;;;;;;9.43;53.89;99719.16;4467443;32;33269;-65
2022/11/25 04:42:44;;;;;;;;;;;;;;;9.02;54.73;99728.25;4470056;32;35113;-67
2022/11/25 04:45:14;;;;;;;;;;;;;;;8.93;56.28;99730.69;4465839;32;34083;-64
2022/11/25 04:47:51;;;;;;;;;;;;;;;9.43;54.31;99735.19;4474135;32;34166;-67
2022/11/25 04:50:19;;;;;;;;;;;;;;;9.29;54.35;99732.63;4451551;32;33399;-65
2022/11/25 04:52:49;;;;;;;;;;;;;;;9.41;54.21;99734.47;4467798;32;35306;-66
2022/11/25 04:55:17;;;;;;;;;;;;;;;9.46;53.81;99743.00;4477267;32;34321;-65
2022/11/25 04:57:44;;;;;;;;;;;;;;;9.57;52.78;99748.44;4467826;32;34995;-78
2022/11/25 05:00:12;;;;;;;;;;;;;;;9.60;52.62;99751.84;4478789;32;33209;-71
2022/11/25 05:02:40;;;;;;;;;;;;;;;9.56;52.94;99759.22;4458870;32;32516;-68
2022/11/25 05:05:08;;;;;;;;;;;;;;;9.44;53.05;99766.31;4475162;32;34042;-68
2022/11/25 05:07:37;;;;;;;;;;;;;;;9.62;52.37;99765.97;4473281;32;34222;-68
2022/11/25 05:10:05;;;;;;;;;;;;;;;9.48;52.91;99759.78;4466270;32;33196;-68
2022/11/25 05:12:33;;;;;;;;;;;;;;;9.45;52.68;99767.16;4466154;32;33796;-69
2022/11/25 05:15:01;;;;;;;;;;;;;;;9.30;52.80;99763.72;4474990;32;32976;-67
2022/11/25 05:17:29;;;;;;;;;;;;;;;8.88;54.04;99772.84;4475077;32;33870;-68
2022/11/25 05:19:57;;;;;;;;;;;;;;;8.89;53.92;99775.41;4479259;32;32011;-68
2022/11/25 05:22:25;;;;;;;;;;;;;;;8.82;54.09;99779.44;4472766;32;35006;-68
2022/11/25 05:24:52;;;;;;;;;;;;;;;8.73;54.20;99778.28;4469921;32;34467;-69
2022/11/25 05:27:20;;;;;;;;;;;;;;;8.72;54.08;99781.88;4474363;32;33751;-68
2022/11/25 05:29:48;;;;;;;;;;;;;;;8.78;53.49;99780.63;4470644;32;32614;-69
2022/11/25 05:32:22;;;;;;;;;;;;;;;8.79;53.13;99783.16;4477138;32;33917;-69
2022/11/25 05:34:50;;;;;;;;;;;;;;;8.79;53.13;99791.19;4469647;32;34624;-69
2022/11/25 05:37:17;;;;;;;;;;;;;;;8.48;54.93;99803.03;4474667;32;33989;-68
2022/11/25 05:39:52;;;;;;;;;;;;;;;8.55;53.94;99803.50;4475474;32;33340;-68
2022/11/25 05:42:20;;;;;;;;;;;;;;;8.50;54.36;99801.09;4473766;32;33909;-69
2022/11/25 05:44:47;;;;;;;;;;;;;;;8.61;53.77;99792.41;4478796;32;33600;-68
2022/11/25 05:47:15;;;;;;;;;;;;;;;8.67;53.52;99802.69;4465279;32;34621;-69
2022/11/25 05:49:42;;;;;;;;;;;;;;;8.67;53.14;99799.12;4466729;32;32987;-69
2022/11/25 05:52:09;;;;;;;;;;;;;;;8.51;53.77;99802.84;4466029;32;33993;-69
2022/11/25 05:54:37;;;;;;;;;;;;;;;8.39;53.87;99815.16;4475755;32;32986;-69
2022/11/25 05:57:05;;;;;;;;;;;;;;;8.44;53.72;99808.66;4471390;32;34188;-69
2022/11/25 05:59:32;;;;;;;;;;;;;;;8.42;53.82;99808.75;4469540;32;34214;-68
2022/11/25 06:02:01;;;;;;;;;;;;;;;8.50;53.29;99818.94;4465782;32;33782;-69
2022/11/25 06:04:28;;;;;;;;;;;;;;;8.46;53.67;99820.94;4473516;32;35149;-70
2022/11/25 06:06:56;;;;;;;;;;;;;;;8.52;53.70;99817.87;4475669;32;33625;-68
2022/11/25 06:09:23;;;;;;;;;;;;;;;8.43;53.73;99815.81;4473840;32;32992;-67
2022/11/25 06:11:50;;;;;;;;;;;;;;;8.55;53.69;99823.00;4467415;32;34207;-67
2022/11/25 06:14:18;;;;;;;;;;;;;;;8.46;54.13;99826.28;4471288;32;34310;-67
2022/11/25 06:16:46;;;;;;;;;;;;;;;8.34;54.41;99829.69;4468906;32;32856;-67
2022/11/25 06:19:14;;;;;;;;;;;;;;;8.62;53.59;99826.13;4474510;32;34417;-67
2022/11/25 06:21:42;;;;;;;;;;;;;;;8.77;53.54;99834.97;4469562;32;33758;-67
2022/11/25 06:24:09;;;;;;;;;;;;;;;8.89;52.95;99833.28;4470394;32;34079;-67
2022/11/25 06:26:37;;;;;;;;;;;;;;;8.97;53.00;99837.16;4467969;32;33663;-67
2022/11/25 06:29:04;;;;;;;;;;;;;;;9.03;52.37;99844.75;4465518;32;32359;-67
2022/11/25 06:31:32;;;;;;;;;;;;;;;8.98;52.74;99851.34;4477611;32;35134;-68
2022/11/25 06:34:00;;;;;;;;;;;;;;;9.01;52.61;99851.16;4468559;32;34023;-67
2022/11/25 06:36:28;;;;;;;;;;;;;;;9.17;52.35;99851.84;4476824;32;33771;-67
2022/11/25 06:38:55;;;;;;;;;;;;;;;9.33;52.00;99857.00;4469637;32;33069;-68
2022/11/25 06:41:22;;;;;;;;;;;;;;;9.47;52.79;99856.94;4466012;32;34151;-67
2022/11/25 06:43:50;;;;;;;;;;;;;;;10.03;50.84;99849.44;4468689;32;34804;-67
2022/11/25 06:46:18;;;;;;;;;;;;;;;10.57;49.65;99853.63;4469925;32;34863;-67
2022/11/25 06:48:51;;;;;;;;;;;;;;;11.22;48.04;99848.84;4475741;32;33155;-68
2022/11/25 06:51:19;;;;;;;;;;;;;;;11.31;47.65;99862.41;4470818;32;34125;-69
2022/11/25 06:53:46;;;;;;;;;;;;;;;11.75;46.08;99859.94;4468223;31;32734;-66
2022/11/25 06:56:15;;;;;;;;;;;;;;;12.02;45.57;99855.13;4468923;32;33843;-68
2022/11/25 06:58:42;;;;;;;;;;;;;;;12.62;44.92;99855.72;4470857;32;34375;-69
2022/11/25 07:01:13;;;;;;;;;;;;;;;13.71;41.78;99858.22;4472456;32;34151;-67
2022/11/25 07:03:42;;;;;;;;;;;;;;;14.11;40.76;99862.81;4466006;32;34417;-66
2022/11/25 07:06:10;;;;;;;;;;;;;;;14.28;40.52;99868.56;4473196;32;34217;-67
2022/11/25 07:08:38;;;;;;;;;;;;;;;14.64;40.44;99872.56;4468199;32;32378;-67
2022/11/25 07:11:06;;;;;;;;;;;;;;;15.43;38.39;99875.19;4470232;32;34060;-66
2022/11/25 07:13:34;;;;;;;;;;;;;;;15.30;38.61;99866.53;4471733;32;33812;-66
2022/11/25 07:16:02;;;;;;;;;;;;;;;14.71;40.17;99875.56;4469154;32;33789;-66
2022/11/25 07:18:33;;;;;;;;;;;;;;;14.28;41.09;99884.72;4457830;32;34765;-67
2022/11/25 07:21:02;;;;;;;;;;;;;;;14.17;41.73;99885.66;4479009;32;33938;-66
2022/11/25 07:23:29;;;;;;;;;;;;;;;14.23;41.74;99887.81;4467703;32;33091;-66
2022/11/25 07:26:01;;;;;;;;;;;;;;;14.36;41.53;99885.75;4468487;32;35172;-68
2022/11/25 07:28:28;;;;;;;;;;;;;;;14.92;40.84;99881.69;4475223;32;33139;-66
2022/11/25 07:30:55;;;;;;;;;;;;;;;14.82;40.38;99884.38;4480335;32;35329;-66
2022/11/25 07:33:43;;;;;;;;;;;;;;;14.75;41.22;99888.63;4462467;32;33418;-66
2022/11/25 07:36:11;;;;;;;;;;;;;;;15.13;41.16;99885.13;4476177;32;32915;-66
2022/11/25 07:38:38;;;;;;;;;;;;;;;15.29;40.37;99878.34;4472121;32;34520;-65
2022/11/25 07:41:22;;;;;;;;;;;;;;;15.26;40.36;99884.84;4470151;32;33967;-66
2022/11/25 07:43:50;;;;;;;;;;;;;;;15.31;40.36;99881.72;4461632;32;34080;-66
2022/11/25 07:46:21;;;;;;;;;;;;;;;15.46;39.80;99890.25;4467850;32;35564;-67
2022/11/25 07:48:57;;;;;;;;;;;;;;;15.53;40.18;99886.81;4474097;32;31460;-66
2022/11/25 07:51:30;;;;;;;;;;;;;;;15.31;40.27;99884.41;4480306;32;34189;-66
2022/11/25 07:53:58;;;;;;;;;;;;;;;15.68;40.33;99890.00;4467248;32;35536;-67
2022/11/25 07:56:26;;;;;;;;;;;;;;;15.60;39.48;99888.00;4471705;32;34110;-67
2022/11/25 07:58:54;;;;;;;;;;;;;;;15.82;39.21;99885.97;4477666;32;33365;-66
2022/11/25 08:01:21;;;;;;;;;;;;;;;15.75;40.28;99888.41;4478278;32;35217;-65
2022/11/25 08:03:49;;;;;;;;;;;;;;;16.02;39.12;99884.13;4469740;32;34287;-67
2022/11/25 08:06:19;;;;;;;;;;;;;;;16.05;38.81;99886.50;4467664;32;34920;-66
2022/11/25 08:08:46;;;;;;;;;;;;;;;16.56;38.26;99882.47;4472792;32;33515;-66
2022/11/25 08:11:15;;;;;;;;;;;;;;;16.62;38.25;99892.66;4478123;32;34181;-66
2022/11/25 08:13:42;;;;;;;;;;;;;;;16.38;38.72;99892.38;4476050;32;33062;-67
2022/11/25 08:16:11;;;;;;;;;;;;;;;15.99;39.59;99893.34;4477298;32;34289;-66
2022/11/25 08:18:39;;;;;;;;;;;;;;;15.74;40.37;99899.34;4475277;32;34320;-66
2022/11/25 08:21:08;;;;;;;;;;;;;;;16.00;39.25;99892.34;4475815;32;33756;-66
2022/11/25 08:23:36;;;;;;;;;;;;;;;16.50;38.07;99899.25;4469057;32;34788;-66
2022/11/25 08:26:04;;;;;;;;;;;;;;;15.88;39.67;99908.84;4474834;32;34143;-67
2022/11/25 08:28:31;;;;;;;;;;;;;;;16.12;39.01;99909.22;4467844;32;33124;-66
2022/11/25 08:31:02;;;;;;;;;;;;;;;16.40;38.56;99909.25;4472404;32;34188;-67
2022/11/25 08:33:30;;;;;;;;;;;;;;;16.26;39.21;99907.91;4466645;32;32883;-67
2022/11/25 08:35:57;;;;;;;;;;;;;;;16.13;39.18;99910.91;4471408;32;34083;-68
2022/11/25 08:38:25;;;;;;;;;;;;;;;16.65;38.79;99905.03;4466929;32;33283;-67
2022/11/25 08:40:52;;;;;;;;;;;;;;;16.65;38.32;99905.03;4476683;32;34153;-66
2022/11/25 08:43:20;;;;;;;;;;;;;;;17.20;37.73;99905.00;4475025;32;34085;-67
2022/11/25 08:45:55;;;;;;;;;;;;;;;17.29;37.14;99912.22;4478192;32;32870;-69
2022/11/25 08:48:22;;;;;;;;;;;;;;;16.65;38.58;99905.88;4469600;32;33513;-67
2022/11/25 08:50:51;;;;;;;;;;;;;;;16.75;39.53;99905.88;4473178;32;34089;-67
2022/11/25 08:53:19;;;;;;;;;;;;;;;17.30;37.15;99905.78;4467028;32;33099;-66
2022/11/25 08:55:46;;;;;;;;;;;;;;;17.59;37.20;99908.28;4466832;32;34128;-67
2022/11/25 08:58:14;;;;;;;;;;;;;;;17.84;35.94;99912.06;4474250;32;32914;-67
2022/11/25 09:00:41;;;;;;;;;;;;;;;17.74;36.75;99900.44;4466577;32;32826;-66
2022/11/25 09:03:09;;;;;;;;;;;;;;;18.56;35.11;99903.72;4454227;32;32607;-67
2022/11/25 09:05:40;;;;;;;;;;;;;;;19.52;33.87;99906.06;4464223;32;34875;-66
2022/11/25 09:08:08;;;;;;;;;;;;;;;19.74;32.91;99908.13;4472814;32;33160;-66
2022/11/25 09:10:36;;;;;;;;;;;;;;;18.86;34.95;99915.91;4474223;32;33629;-66
2022/11/25 09:13:03;;;;;;;;;;;;;;;18.58;36.02;99910.66;4466053;32;34604;-66
2022/11/25 09:15:31;;;;;;;;;;;;;;;18.47;35.62;99912.81;4471526;32;34125;-66
2022/11/25 09:17:59;;;;;;;;;;;;;;;19.13;35.13;99916.66;4479411;32;33301;-66
2022/11/25 09:20:26;;;;;;;;;;;;;;;18.94;35.45;99915.06;4472138;32;32768;-66
2022/11/25 09:22:54;;;;;;;;;;;;;;;18.55;36.39;99916.41;4468396;32;34354;-66
2022/11/25 09:25:21;;;;;;;;;;;;;;;18.47;36.86;99915.53;4464627;32;32497;-66
2022/11/25 09:27:48;;;;;;;;;;;;;;;18.92;35.69;99914.41;4478281;32;32075;-66
2022/11/25 09:30:16;;;;;;;;;;;;;;;18.82;36.12;99915.38;4478103;32;33984;-65
2022/11/25 09:32:43;;;;;;;;;;;;;;;18.30;37.13;99906.47;4476399;32;34250;-65
2022/11/25 09:35:11;;;;;;;;;;;;;;;18.15;37.00;99909.75;4465105;32;34075;-66
2022/11/25 09:37:38;;;;;;;;;;;;;;;18.01;37.94;99913.03;4473903;32;34293;-69
2022/11/25 09:40:06;;;;;;;;;;;;;;;17.83;37.51;99907.66;4468177;32;35304;-67
2022/11/25 09:49:11;;;;;;;;;;;;;;;18.74;36.99;99907.19;4444286;32;33023;-67
2022/11/25 09:51:40;;;;;;;;;;;;;;;19.49;35.03;99895.53;4467832;32;35002;-66
2022/11/25 09:54:13;;;;;;;;;;;;;;;19.66;35.05;99896.41;4463740;32;34273;-67
2022/11/25 09:56:41;;;;;;;;;;;;;;;19.83;34.71;99884.50;4459403;32;33882;-68
2022/11/25 09:59:09;;;;;;;;;;;;;;;20.72;33.43;99884.50;4467204;32;33291;-67
2022/11/25 10:01:42;;;;;;;;;;;;;;;21.16;32.86;99890.22;4466876;32;34793;-72
2022/11/25 10:04:12;;;;;;;;;;;;;;;20.67;32.66;99895.88;4459482;32;34457;-68
2022/11/25 10:06:44;;;;;;;;;;;;;;;20.36;33.57;99898.53;4468187;32;33848;-65
2022/11/25 10:09:17;;;;;;;;;;;;;;;20.74;33.33;99904.19;4459387;32;33295;-65
2022/11/25 10:11:49;;;;;;;;;;;;;;;21.22;31.77;99900.38;4457926;32;32375;-67
2022/11/25 10:14:20;;;;;;;;;;;;;;;21.89;30.86;99901.59;4467915;32;32746;-66
2022/11/25 10:16:55;;;;;;;;;;;;;;;22.51;29.60;99899.47;4464658;32;34699;-67
2022/11/25 10:19:28;;;;;;;;;;;;;;;23.40;28.25;99899.31;4469388;32;34585;-67
2022/11/25 10:21:56;;;;;;;;;;;;;;;24.36;26.95;99898.88;4465431;32;32772;-67
2022/11/25 10:24:23;;;;;;;;;;;;;;;24.57;26.95;99889.78;4471765;32;33954;-68
2022/11/25 10:26:57;;;;;;;;;;;;;;;24.75;26.22;99887.37;4460559;32;33975;-68
2022/11/25 10:29:26;;;;;;;;;;;;;;;24.43;26.94;99890.75;4462496;32;33689;-68
2022/11/25 10:32:09;;;;;;;;;;;;;;;24.23;27.36;99888.69;4470735;32;34476;-68
2022/11/25 10:34:39;;;;;;;;;;;;;;;23.74;27.85;99886.84;4474854;32;34222;-65
2022/11/25 10:37:11;;;;;;;;;;;;;;;22.54;30.09;99893.63;4480743;32;35232;-66
2022/11/25 10:39:38;;;;;;;;;;;;;;;22.17;30.83;99893.69;4470348;32;33467;-74
2022/11/25 10:42:08;;;;;;;;;;;;;;;22.16;30.86;99894.75;4472190;32;33529;-71
2022/11/25 10:44:37;;;;;;;;;;;;;;;22.57;30.15;99889.69;4457625;32;33794;-78
2022/11/25 10:47:24;;;;;;;;;;;;;;;22.65;30.16;99892.28;4462918;32;34429;-67
2022/11/25 10:50:00;;;;;;;;;;;;;;;23.12;29.36;99895.66;4473142;32;33771;-68
2022/11/25 10:52:29;;;;;;;;;;;;;;;22.47;30.36;99900.00;4476382;32;34864;-67
2022/11/25 10:55:10;;;;;;;;;;;;;;;22.39;30.13;99903.69;4472585;32;35225;-68
2022/11/25 10:57:37;;;;;;;;;;;;;;;22.32;29.94;99903.59;4472272;31;34366;-67
2022/11/25 11:00:05;;;;;;;;;;;;;;;21.39;32.23;99906.59;4461298;32;31898;-69
2022/11/25 11:02:33;;;;;;;;;;;;;;;21.45;32.04;99911.31;4473245;32;34080;-70
2022/11/25 11:05:01;;;;;;;;;;;;;;;20.79;33.21;99907.22;4464531;31;32708;-72
2022/11/25 11:07:32;;;;;;;;;;;;;;;20.17;34.07;99910.63;4463008;32;33485;-68
2022/11/25 11:10:12;;;;;;;;;;;;;;;19.01;36.51;99921.56;4479840;32;34842;-68
2022/11/25 11:12:58;;;;;;;;;;;;;;;18.68;37.10;99913.22;4471450;32;34175;-70
2022/11/25 11:15:33;;;;;;;;;;;;;;;17.90;38.46;99911.44;4468028;32;33080;-66
2022/11/25 11:18:13;;;;;;;;;;;;;;;17.36;40.19;99921.41;4465981;32;33721;-70
2022/11/25 11:20:48;;;;;;;;;;;;;;;16.76;41.36;99919.25;4468443;32;34603;-68
2022/11/25 11:23:15;;;;;;;;;;;;;;;15.96;43.04;99920.62;4471950;32;33825;-70
2022/11/25 11:25:52;;;;;;;;;;;;;;;15.48;44.32;99920.66;4480193;32;35067;-68
2022/11/25 11:28:24;;;;;;;;;;;;;;;15.85;43.72;99923.47;4471864;32;34554;-68
2022/11/25 11:30:56;;;;;;;;;;;;;;;15.37;45.46;99916.22;4471103;32;33298;-68
2022/11/25 11:33:26;;;;;;;;;;;;;;;15.49;44.85;99917.78;4472563;32;35209;-68
2022/11/25 11:35:56;;;;;;;;;;;;;;;15.40;45.28;99920.47;4466014;32;33841;-68
2022/11/25 11:38:23;;;;;;;;;;;;;;;15.73;44.63;99919.22;4457656;32;33908;-69
2022/11/25 11:40:51;;;;;;;;;;;;;;;15.79;44.68;99924.06;4481192;32;33206;-67
2022/11/25 11:43:33;;;;;;;;;;;;;;;15.99;43.63;99925.75;4465967;32;34258;-68
2022/11/25 11:46:03;;;;;;;;;;;;;;;15.89;44.15;99924.03;4477454;32;35396;-67
2022/11/25 11:48:31;;;;;;;;;;;;;;;15.65;45.34;99921.78;4468493;32;35132;-68
2022/11/25 11:51:07;;;;;;;;;;;;;;;15.51;44.84;99925.75;4469918;32;33281;-69
2022/11/25 11:53:40;;;;;;;;;;;;;;;15.48;45.41;99923.34;4475138;32;33645;-67
2022/11/25 11:56:09;;;;;;;;;;;;;;;16.05;44.51;99922.47;4473529;32;34162;-68
2022/11/25 11:59:03;;;;;;;;;;;;;;;15.95;44.66;99923.47;4469191;32;34246;-67
2022/11/25 12:01:37;;;;;;;;;;;;;;;16.40;43.17;99914.66;4460033;32;34434;-69
2022/11/25 12:04:15;;;;;;;;;;;;;;;16.28;43.71;99912.16;4467458;32;34890;-68
2022/11/25 12:06:44;;;;;;;;;;;;;;;16.38;43.67;99905.88;4458016;32;34268;-68
2022/11/25 12:09:12;;;;;;;;;;;;;;;16.47;43.39;99902.28;4463176;32;35298;-68
2022/11/25 12:11:43;;;;;;;;;;;;;;;16.58;43.45;99904.78;4458588;32;32032;-68
2022/11/25 12:14:21;;;;;;;;;;;;;;;16.71;43.04;99904.44;4460022;32;34211;-68
2022/11/25 12:16:58;;;;;;;;;;;;;;;16.37;43.73;99913.12;4442113;32;33843;-68
2022/11/25 12:19:29;;;;;;;;;;;;;;;16.10;44.58;99905.81;4459991;32;33995;-68
2022/11/25 12:22:02;;;;;;;;;;;;;;;16.27;43.90;99909.59;4465023;32;33345;-69
2022/11/25 12:24:32;;;;;;;;;;;;;;;16.45;43.55;99905.12;4457545;32;34196;-69
2022/11/25 12:27:01;;;;;;;;;;;;;;;16.60;43.53;99907.34;4453722;32;35200;-68
2022/11/25 12:29:44;;;;;;;;;;;;;;;16.43;43.69;99909.81;4448974;32;33674;-68
2022/11/25 12:32:15;;;;;;;;;;;;;;;16.74;43.24;99909.53;4441340;32;31636;-69
2022/11/25 12:35:02;;;;;;;;;;;;;;;16.79;42.82;99907.28;4462462;32;33220;-68
2022/11/25 12:37:35;;;;;;;;;;;;;;;16.88;42.84;99909.06;4450116;32;34307;-68
2022/11/25 12:40:12;;;;;;;;;;;;;;;16.86;42.85;99904.84;4449216;32;34645;-67
2022/11/25 12:42:40;;;;;;;;;;;;;;;16.32;43.36;99910.00;4451824;32;34527;-68
2022/11/25 12:45:10;;;;;;;;;;;;;;;16.06;43.68;99902.56;4451204;32;34318;-71
2022/11/25 12:47:38;;;;;;;;;;;;;;;15.64;44.71;99898.50;4450306;32;34564;-69
2022/11/25 12:50:05;;;;;;;;;;;;;;;15.49;44.81;99900.75;4451825;32;32246;-66
2022/11/25 12:52:41;;;;;;;;;;;;;;;15.45;45.27;99889.41;4447379;32;32505;-68
2022/11/25 12:55:24;;;;;;;;;;;;;;;15.23;45.52;99895.06;4441071;32;32977;-67
2022/11/25 12:58:06;;;;;;;;;;;;;;;15.37;45.42;99891.94;4440907;32;34399;-67
2022/11/25 13:00:52;;;;;;;;;;;;;;;15.58;45.36;99898.06;4448056;32;35166;-67
2022/11/25 13:03:20;;;;;;;;;;;;;;;15.70;45.08;99893.41;4443879;32;34099;-67
2022/11/25 13:05:50;;;;;;;;;;;;;;;15.53;46.49;99892.22;4453184;32;34501;-66
2022/11/25 13:08:36;;;;;;;;;;;;;;;15.87;45.20;99890.97;4450617;32;34710;-67
2022/11/25 13:11:04;;;;;;;;;;;;;;;15.93;44.35;99880.44;4449902;32;32630;-67
2022/11/25 13:13:52;;;;;;;;;;;;;;;16.31;43.24;99889.41;4449645;32;33451;-67
2022/11/25 13:16:20;;;;;;;;;;;;;;;16.30;43.56;99885.00;4448706;32;34156;-67